Airfield :
LOGIN :

Register | Disclaimer

   EN    FR    IT 

 










Legend :    VFR   Marginal VFR   IFR   Intensive IFR   Very Intensive IFR
Visi :
Ceiling :
>= 8 km
>= 3000ft
5 to 8 km
1000 to 3000 ft
1500m to 5 km
500 to 1000 ft
800 to 1500m
200 to 500 ft
< 800m
< 200 ft
Symbols :   Thunderstorms  Fog  Heavy snow  Heavy precipitations  Wind > 20 kt
SIGMETs :     Misc.  Thunderstorms  Icing  Turbulence  Mountain Waves  Volcanic Ashes







- Airport Elevation : 37 ft
- IATA code : OLB


LIEO - Olbia Costa Smeralda

CURRENT METAR :
  • 151050Z 12008KT 090V150 9999 SCT020 23/18 Q1015

EXPIRED METARs :
  • 151020Z 10008KT 070V140 9999 SCT020 23/17 Q1015
  • 150950Z 14005KT 110V180 9999 SCT030 22/19 Q1015
  • 150920Z VRB02KT 9999 SCT020 21/19 Q1015
  • 150850Z VRB02KT 9999 SCT020 21/19 Q1015
  • 150820Z VRB02KT 9999 SCT020 20/19 Q1015
  • 150750Z 24003KT 9999 SCT020 19/19 Q1015

TAF TAF LIEO
Valid from the 15 at 06:00 until the 16 at 06:00 UTC


150500Z 1506/1606 VRB05KT 7000 SCT030
BECMG 1508/1510 10010KT
BECMG 1518/1520 VRB05KT
TEMPO 1523/1606 3000 TSRA
No reported NOTAMs for that airfield.



MET'MAP, your aeronautical weather chart ! - Copyright ORBIFLY December 2007 - Disclaimer

ORBIFLY MET'MAP TEAM :

Programming & Development : Alexandra Zaïnal
Concept & Development : Baudouin d'Aumeries
Co-Development & Prog : Marc-Olivier Méhu
Technical & hardware support : Manuel Goepfert

Contact : metmap@orbifly.com




SOURCES & CREDITS :

   NOAA